aviador You're here:

KWLD Decoded Metar

WINFIELD/ARKANSA in KS, USA
Report Time2017-04-25 05:54:00
UTC Time2017-04-25 06:35:43
Flight Rules vfr VFR
Wind140° at 09 Gusting to 17 kt
W.Decomp.*RWY 13: 9.0 kt HW 0.6 kt RCW
RWY 17: 7.3 kt HW 5.3 kt LCW
W.Rank140° ranks 6
Current wind is above 140° avg. (7.2)
Visibility9999 m
Phenomena:N/A
Clouds:N/A
Expected CloudBase > 3,200 ft AGL from Temp-Dew spread
CeilingNone
Temp17°C (ISA +4)
Dew Point09°C (59% RH)
AAT13.5°C
QNH1001 hPa
Density Alt2,218 ft
Elevation1,148 ft
Report Wrong Elevation
Raw Report
KWLD 250554Z AUTO 14009G17KT 10SM CLR 17/09 A2955 RMK AO2 SLP998
T01670094 10211 20167 402390061 58015=

Extra information for KWLD:More info

Metar Taf Metar & Taf Last 4 Metars F.Rules Stats Wind Profile Meteogram Temp Stats Airport Information Weather charts Add Link Nearby VenuesMetar ALERT Operation Metar Decoded Social comments

AIRNAV info for KWLD